Dades meteomassalio
Diari Summary for Febrer 9, 2018 Units:  Both    English   Metric
« Previous Day
Next Day »
Diari Semanal Mensual Anual Personalitzat
  Maxima: Minima: Mijana:
Temperatura: TemperatureC °F /  -17.8 °C -5.6 °F /  -20.9 °C 2.3 °F /  -16.5 °C
Rosada: DewpointC °F /  -17.8 °C -6.8 °F /  -21.6 °C -1.8 °F /  -18.8 °C
Humitat: Humidity % 47 % 76 %
Velocitat del vent: WindSpeedKMH mph /  0 km/h - 14.4 mph /  23.2 km/h
Racha vent: WindSpeedGustKMH mph /  0 km/h - -
Vent:- - WNW
Pressio: PressurehPa in /  0 hPa 1020.2 in /  34544 hPa -
Pluja: 0.5 in /  12.7 mm    
Historical Graphs
 
 
Tabular Data for Febrer 9, 2018
Time Temperature Dew Point Pressure Wind Wind Speed Wind Gust Humidity Rainfall Rate (Hourly) solar Conditions
TemperatureC °F /  -17.8 °C DewpointC °F /  -17.8 °C PressurehPa in /  0 hPa Calm     Humidity % HourlyPrecipMM in /  0 mm SolarRadiationWatts/m^2 W/m2 Conditions
00:00 -2.2 °F /  -19 °C -3.7 °F /  -19.8 °C 1023.2 in /  34645.6 hPa West 8.0 mph /  12.9 km/h 8.0 mph /  12.9 km/h 90 % 0.0 in /  0 mm 0.0 W/m2 CLR
00:05 -2.2 °F /  -19 °C -3.7 °F /  -19.8 °C 1023.2 in /  34645.6 hPa West 6.4 mph /  10.3 km/h 6.4 mph /  10.3 km/h 90 % 0.0 in /  0 mm 0.0 W/m2 RA
00:10 -2.2 °F /  -19 °C -3.7 °F /  -19.8 °C 1023.2 in /  34645.6 hPa West 7.4 mph /  11.9 km/h 7.4 mph /  11.9 km/h 90 % 0.0 in /  0 mm 0.0 W/m2 CLR
00:15 -2.8 °F /  -19.3 °C -4.2 °F /  -20.1 °C 1023.2 in /  34645.6 hPa WNW 9.3 mph /  15 km/h 9.3 mph /  15 km/h 90 % 0.0 in /  0 mm 0.0 W/m2 CLR
00:20 -2.8 °F /  -19.3 °C -4.2 °F /  -20.1 °C 1023.2 in /  34645.6 hPa WNW 11.1 mph /  17.9 km/h 11.1 mph /  17.9 km/h 90 % 0.0 in /  0 mm 0.0 W/m2 CLR
00:25 -2.8 °F /  -19.3 °C -4.3 °F /  -20.2 °C 1023.2 in /  34645.6 hPa WNW 11.3 mph /  18.2 km/h 11.3 mph /  18.2 km/h 89 % 0.0 in /  0 mm 0.0 W/m2 CLR
00:30 -2.8 °F /  -19.3 °C -4.3 °F /  -20.2 °C 1023.2 in /  34645.6 hPa WNW 13.0 mph /  20.9 km/h 13.0 mph /  20.9 km/h 89 % 0.0 in /  0 mm 0.0 W/m2 CLR
00:35 -2.8 °F /  -19.3 °C -4.3 °F /  -20.2 °C 1022.9 in /  34635.4 hPa WNW 13.0 mph /  20.9 km/h 13.0 mph /  20.9 km/h 89 % 0.0 in /  0 mm 0.0 W/m2 CLR
00:40 -2.8 °F /  -19.3 °C -4.3 °F /  -20.2 °C 1022.9 in /  34635.4 hPa West 9.3 mph /  15 km/h 9.3 mph /  15 km/h 89 % 0.0 in /  0 mm 0.0 W/m2 CLR
00:45 -2.8 °F /  -19.3 °C -4.3 °F /  -20.2 °C 1022.9 in /  34635.4 hPa West 13.0 mph /  20.9 km/h 13.0 mph /  20.9 km/h 89 % 0.0 in /  0 mm 0.0 W/m2 CLR
00:50 -2.8 °F /  -19.3 °C -4.3 °F /  -20.2 °C 1022.9 in /  34635.4 hPa West 9.7 mph /  15.6 km/h 9.7 mph /  15.6 km/h 89 % 0.0 in /  0 mm 0.0 W/m2 CLR
00:55 -2.8 °F /  -19.3 °C -4.3 °F /  -20.2 °C 1022.9 in /  34635.4 hPa West 9.3 mph /  15 km/h 9.3 mph /  15 km/h 89 % 0.0 in /  0 mm 0.0 W/m2 CLR
01:00 -2.8 °F /  -19.3 °C -4.3 °F /  -20.2 °C 1022.9 in /  34635.4 hPa West 9.3 mph /  15 km/h 9.3 mph /  15 km/h 89 % 0.0 in /  0 mm 0.0 W/m2 CLR
01:05 -2.8 °F /  -19.3 °C -4.3 °F /  -20.2 °C 1022.9 in /  34635.4 hPa West 11.1 mph /  17.9 km/h 11.1 mph /  17.9 km/h 89 % 0.0 in /  0 mm 0.0 W/m2 CLR
01:10 -2.8 °F /  -19.3 °C -4.3 °F /  -20.2 °C 1022.9 in /  34635.4 hPa West 14.8 mph /  23.8 km/h 14.8 mph /  23.8 km/h 89 % 0.0 in /  0 mm 0.0 W/m2 CLR
01:15 -2.8 °F /  -19.3 °C -4.3 °F /  -20.2 °C 1022.9 in /  34635.4 hPa West 14.8 mph /  23.8 km/h 14.8 mph /  23.8 km/h 89 % 0.0 in /  0 mm 0.0 W/m2 CLR
01:20 -2.8 °F /  -19.3 °C -4.3 °F /  -20.2 °C 1022.9 in /  34635.4 hPa West 14.5 mph /  23.3 km/h 14.5 mph /  23.3 km/h 89 % 0.0 in /  0 mm 0.0 W/m2 CLR
01:25 -2.8 °F /  -19.3 °C -4.3 °F /  -20.2 °C 1022.9 in /  34635.4 hPa West 14.8 mph /  23.8 km/h 14.8 mph /  23.8 km/h 89 % 0.0 in /  0 mm 0.0 W/m2 CLR
01:30 -2.8 °F /  -19.3 °C -4.3 °F /  -20.2 °C 1022.9 in /  34635.4 hPa West 11.1 mph /  17.9 km/h 11.1 mph /  17.9 km/h 89 % 0.0 in /  0 mm 0.0 W/m2 CLR
01:35 -2.8 °F /  -19.3 °C -4.5 °F /  -20.3 °C 1023.2 in /  34645.6 hPa West 11.1 mph /  17.9 km/h 11.1 mph /  17.9 km/h 88 % 0.0 in /  0 mm 0.0 W/m2 CLR
01:40 -2.8 °F /  -19.3 °C -4.5 °F /  -20.3 °C 1023.2 in /  34645.6 hPa West 13.0 mph /  20.9 km/h 13.0 mph /  20.9 km/h 88 % 0.0 in /  0 mm 0.0 W/m2 CLR
01:45 -2.8 °F /  -19.3 °C -4.5 °F /  -20.3 °C 1023.2 in /  34645.6 hPa West 13.0 mph /  20.9 km/h 13.0 mph /  20.9 km/h 88 % 0.0 in /  0 mm 0.0 W/m2 CLR
01:50 -2.8 °F /  -19.3 °C -4.5 °F /  -20.3 °C 1022.9 in /  34635.4 hPa West 13.0 mph /  20.9 km/h 13.0 mph /  20.9 km/h 88 % 0.0 in /  0 mm 0.0 W/m2 CLR
01:55 -3.3 °F /  -19.6 °C -5.1 °F /  -20.6 °C 1022.9 in /  34635.4 hPa West 11.1 mph /  17.9 km/h 11.1 mph /  17.9 km/h 88 % 0.0 in /  0 mm 0.0 W/m2 CLR
02:00 -3.3 °F /  -19.6 °C -5.1 °F /  -20.6 °C 1022.9 in /  34635.4 hPa West 13.0 mph /  20.9 km/h 13.0 mph /  20.9 km/h 88 % 0.0 in /  0 mm 0.0 W/m2 CLR
02:05 -3.3 °F /  -19.6 °C -5.1 °F /  -20.6 °C 1022.9 in /  34635.4 hPa WSW 12.9 mph /  20.8 km/h 12.9 mph /  20.8 km/h 88 % 0.0 in /  0 mm 0.0 W/m2 CLR
02:10 -3.3 °F /  -19.6 °C -5.1 °F /  -20.6 °C 1022.9 in /  34635.4 hPa West 11.3 mph /  18.2 km/h 11.3 mph /  18.2 km/h 88 % 0.0 in /  0 mm 0.0 W/m2 CLR
02:15 -2.8 °F /  -19.3 °C -4.5 °F /  -20.3 °C 1022.9 in /  34635.4 hPa West 18.5 mph /  29.8 km/h 18.5 mph /  29.8 km/h 88 % 0.0 in /  0 mm 0.0 W/m2 CLR
02:20 -3.3 °F /  -19.6 °C -5.1 °F /  -20.6 °C 1022.9 in /  34635.4 hPa West 14.8 mph /  23.8 km/h 14.8 mph /  23.8 km/h 88 % 0.0 in /  0 mm 0.0 W/m2 CLR
02:25 -2.8 °F /  -19.3 °C -4.5 °F /  -20.3 °C 1022.9 in /  34635.4 hPa West 13.0 mph /  20.9 km/h 13.0 mph /  20.9 km/h 88 % 0.0 in /  0 mm 0.0 W/m2 CLR
02:30 -2.8 °F /  -19.3 °C -4.5 °F /  -20.3 °C 1023.2 in /  34645.6 hPa West 11.1 mph /  17.9 km/h 11.1 mph /  17.9 km/h 88 % 0.0 in /  0 mm 0.0 W/m2 CLR
02:35 -2.8 °F /  -19.3 °C -4.5 °F /  -20.3 °C 1023.2 in /  34645.6 hPa West 9.7 mph /  15.6 km/h 9.7 mph /  15.6 km/h 88 % 0.0 in /  0 mm 0.0 W/m2 CLR
02:40 -2.8 °F /  -19.3 °C -4.5 °F /  -20.3 °C 1023.2 in /  34645.6 hPa West 9.3 mph /  15 km/h 9.3 mph /  15 km/h 88 % 0.0 in /  0 mm 0.0 W/m2 CLR
02:45 -2.8 °F /  -19.3 °C -4.5 °F /  -20.3 °C 1023.2 in /  34645.6 hPa WSW 6.4 mph /  10.3 km/h 6.4 mph /  10.3 km/h 88 % 0.0 in /  0 mm 0.0 W/m2 CLR
02:50 -3.3 °F /  -19.6 °C -5.1 °F /  -20.6 °C 1023.2 in /  34645.6 hPa WSW 9.3 mph /  15 km/h 9.3 mph /  15 km/h 88 % 0.0 in /  0 mm 0.0 W/m2 CLR
02:55 -3.3 °F /  -19.6 °C -5.1 °F /  -20.6 °C 1023.2 in /  34645.6 hPa West 11.3 mph /  18.2 km/h 11.3 mph /  18.2 km/h 88 % 0.0 in /  0 mm 0.0 W/m2 CLR
03:00 -3.3 °F /  -19.6 °C -5.1 °F /  -20.6 °C 1023.2 in /  34645.6 hPa WSW 7.4 mph /  11.9 km/h 7.4 mph /  11.9 km/h 88 % 0.0 in /  0 mm 0.0 W/m2 CLR
03:05 -3.3 °F /  -19.6 °C -5.1 °F /  -20.6 °C 1023.2 in /  34645.6 hPa West 11.3 mph /  18.2 km/h 11.3 mph /  18.2 km/h 88 % 0.0 in /  0 mm 0.0 W/m2 CLR
03:10 -3.3 °F /  -19.6 °C -5.1 °F /  -20.6 °C 1022.9 in /  34635.4 hPa West 8.0 mph /  12.9 km/h 8.0 mph /  12.9 km/h 88 % 0.0 in /  0 mm 0.0 W/m2 CLR
03:15 -3.3 °F /  -19.6 °C -5.1 °F /  -20.6 °C 1022.9 in /  34635.4 hPa Calm     88 % 0.0 in /  0 mm 0.0 W/m2 CLR
03:20 -3.3 °F /  -19.6 °C -5.1 °F /  -20.6 °C 1022.9 in /  34635.4 hPa Calm     88 % 0.0 in /  0 mm 0.0 W/m2 CLR
03:25 -3.9 °F /  -19.9 °C -5.6 °F /  -20.9 °C 1022.9 in /  34635.4 hPa Calm     88 % 0.0 in /  0 mm 0.0 W/m2 CLR
03:30 -3.9 °F /  -19.9 °C -5.6 °F /  -20.9 °C 1022.9 in /  34635.4 hPa West 7.4 mph /  11.9 km/h 7.4 mph /  11.9 km/h 88 % 0.0 in /  0 mm 0.0 W/m2 CLR
03:35 -3.9 °F /  -19.9 °C -5.4 °F /  -20.8 °C 1022.9 in /  34635.4 hPa West 9.3 mph /  15 km/h 9.3 mph /  15 km/h 89 % 0.0 in /  0 mm 0.0 W/m2 CLR
03:40 -3.9 °F /  -19.9 °C -5.4 °F /  -20.8 °C 1022.9 in /  34635.4 hPa WNW 13.0 mph /  20.9 km/h 13.0 mph /  20.9 km/h 89 % 0.0 in /  0 mm 0.0 W/m2 CLR
03:45 -4.4 °F /  -20.2 °C -6.1 °F /  -21.2 °C 1022.9 in /  34635.4 hPa West 9.3 mph /  15 km/h 9.3 mph /  15 km/h 88 % 0.0 in /  0 mm 0.0 W/m2 CLR
03:50 -4.4 °F /  -20.2 °C -6.1 °F /  -21.2 °C 1022.9 in /  34635.4 hPa West 9.3 mph /  15 km/h 9.3 mph /  15 km/h 88 % 0.0 in /  0 mm 0.0 W/m2 CLR
03:55 -4.4 °F /  -20.2 °C -6.3 °F /  -21.3 °C 1022.6 in /  34625.2 hPa WSW 5.6 mph /  9 km/h 5.6 mph /  9 km/h 87 % 0.0 in /  0 mm 0.0 W/m2 CLR
04:00 -4.4 °F /  -20.2 °C -6.1 °F /  -21.2 °C 1022.6 in /  34625.2 hPa WSW 8.0 mph /  12.9 km/h 8.0 mph /  12.9 km/h 88 % 0.0 in /  0 mm 0.0 W/m2 CLR
04:05 -4.4 °F /  -20.2 °C -6.1 °F /  -21.2 °C 1022.6 in /  34625.2 hPa WSW 5.6 mph /  9 km/h 5.6 mph /  9 km/h 88 % 0.0 in /  0 mm 0.0 W/m2 CLR
04:10 -4.4 °F /  -20.2 °C -6.1 °F /  -21.2 °C 1022.6 in /  34625.2 hPa West 7.4 mph /  11.9 km/h 7.4 mph /  11.9 km/h 88 % 0.0 in /  0 mm 0.0 W/m2 CLR
04:15 -4.4 °F /  -20.2 °C -6.1 °F /  -21.2 °C 1022.6 in /  34625.2 hPa WNW 7.4 mph /  11.9 km/h 7.4 mph /  11.9 km/h 88 % 0.0 in /  0 mm 0.0 W/m2 CLR
04:20 -4.4 °F /  -20.2 °C -6.0 °F /  -21.1 °C 1022.6 in /  34625.2 hPa WNW 11.3 mph /  18.2 km/h 11.3 mph /  18.2 km/h 89 % 0.0 in /  0 mm 0.0 W/m2 CLR
04:25 -4.4 °F /  -20.2 °C -6.1 °F /  -21.2 °C 1022.6 in /  34625.2 hPa West 5.6 mph /  9 km/h 5.6 mph /  9 km/h 88 % 0.0 in /  0 mm 0.0 W/m2 CLR
04:30 -4.4 °F /  -20.2 °C -6.3 °F /  -21.3 °C 1022.6 in /  34625.2 hPa Calm     87 % 0.0 in /  0 mm 0.0 W/m2 CLR
04:35 -4.4 °F /  -20.2 °C -6.3 °F /  -21.3 °C 1022.6 in /  34625.2 hPa Calm     87 % 0.0 in /  0 mm 0.0 W/m2 CLR
04:40 -4.4 °F /  -20.2 °C -6.1 °F /  -21.2 °C 1022.6 in /  34625.2 hPa Calm     88 % 0.0 in /  0 mm 0.0 W/m2 CLR
04:45 -4.4 °F /  -20.2 °C -6.1 °F /  -21.2 °C 1022.6 in /  34625.2 hPa Calm     88 % 0.0 in /  0 mm 0.0 W/m2 CLR
04:50 -4.4 °F /  -20.2 °C -6.0 °F /  -21.1 °C 1022.6 in /  34625.2 hPa Calm     89 % 0.0 in /  0 mm 0.0 W/m2 CLR
04:55 -4.4 °F /  -20.2 °C -6.0 °F /  -21.1 °C 1022.6 in /  34625.2 hPa Calm     89 % 0.0 in /  0 mm 0.0 W/m2 CLR
05:00 -4.4 °F /  -20.2 °C -6.0 °F /  -21.1 °C 1022.6 in /  34625.2 hPa Calm     89 % 0.0 in /  0 mm 0.0 W/m2 CLR
05:05 -4.4 °F /  -20.2 °C -6.0 °F /  -21.1 °C 1022.6 in /  34625.2 hPa Calm     89 % 0.0 in /  0 mm 0.0 W/m2 CLR
05:10 -5.0 °F /  -20.6 °C -6.6 °F /  -21.4 °C 1022.6 in /  34625.2 hPa Calm     89 % 0.0 in /  0 mm 0.0 W/m2 CLR
05:15 -5.0 °F /  -20.6 °C -6.4 °F /  -21.3 °C 1022.6 in /  34625.2 hPa Calm     90 % 0.0 in /  0 mm 0.0 W/m2 CLR
05:20 -5.0 °F /  -20.6 °C -6.4 °F /  -21.3 °C 1022.6 in /  34625.2 hPa Calm     90 % 0.0 in /  0 mm 0.0 W/m2 CLR
05:25 -5.0 °F /  -20.6 °C -6.4 °F /  -21.3 °C 1022.6 in /  34625.2 hPa Calm     90 % 0.0 in /  0 mm 0.0 W/m2 CLR
05:30 -5.0 °F /  -20.6 °C -6.4 °F /  -21.3 °C 1022.6 in /  34625.2 hPa Calm     90 % 0.0 in /  0 mm 0.0 W/m2 CLR
05:35 -5.0 °F /  -20.6 °C -6.4 °F /  -21.3 °C 1022.6 in /  34625.2 hPa Calm     90 % 0.0 in /  0 mm 0.0 W/m2 CLR
05:40 -5.0 °F /  -20.6 °C -6.4 °F /  -21.3 °C 1022.6 in /  34625.2 hPa Calm     90 % 0.0 in /  0 mm 0.0 W/m2 CLR
05:45 -5.0 °F /  -20.6 °C -6.4 °F /  -21.3 °C 1022.9 in /  34635.4 hPa Calm     90 % 0.0 in /  0 mm 0.0 W/m2 CLR
05:50 -5.0 °F /  -20.6 °C -6.4 °F /  -21.3 °C 1022.9 in /  34635.4 hPa Calm     90 % 0.0 in /  0 mm 0.0 W/m2 CLR
05:55 -5.0 °F /  -20.6 °C -6.4 °F /  -21.3 °C 1022.6 in /  34625.2 hPa Calm     90 % 0.0 in /  0 mm 0.0 W/m2 CLR
06:00 -5.0 °F /  -20.6 °C -6.4 °F /  -21.3 °C 1022.9 in /  34635.4 hPa Calm     90 % 0.0 in /  0 mm 0.0 W/m2 CLR
06:05 -5.0 °F /  -20.6 °C -6.4 °F /  -21.3 °C 1022.9 in /  34635.4 hPa Calm     90 % 0.0 in /  0 mm 0.0 W/m2 CLR
06:10 -5.0 °F /  -20.6 °C -6.4 °F /  -21.3 °C 1022.9 in /  34635.4 hPa Calm     90 % 0.0 in /  0 mm 0.0 W/m2 CLR
06:15 -5.0 °F /  -20.6 °C -6.4 °F /  -21.3 °C 1022.9 in /  34635.4 hPa Calm     90 % 0.0 in /  0 mm 0.0 W/m2 CLR
06:20 -5.0 °F /  -20.6 °C -6.4 °F /  -21.3 °C 1022.9 in /  34635.4 hPa Calm     90 % 0.0 in /  0 mm 0.0 W/m2 CLR
06:26 -5.0 °F /  -20.6 °C -6.4 °F /  -21.3 °C 1022.9 in /  34635.4 hPa Calm     90 % 0.0 in /  0 mm 0.0 W/m2 CLR
06:31 -5.0 °F /  -20.6 °C -6.4 °F /  -21.3 °C 1022.9 in /  34635.4 hPa Calm     90 % 0.0 in /  0 mm 0.0 W/m2 CLR
06:36 -5.0 °F /  -20.6 °C -6.4 °F /  -21.3 °C 1022.9 in /  34635.4 hPa Calm     90 % 0.0 in /  0 mm 0.0 W/m2 CLR
06:41 -5.0 °F /  -20.6 °C -6.2 °F /  -21.2 °C 1022.6 in /  34625.2 hPa Calm     91 % 0.0 in /  0 mm 0.0 W/m2 CLR
06:46 -5.0 °F /  -20.6 °C -6.2 °F /  -21.2 °C 1022.9 in /  34635.4 hPa Calm     91 % 0.0 in /  0 mm 0.0 W/m2 CLR
06:51 -5.0 °F /  -20.6 °C -6.2 °F /  -21.2 °C 1022.9 in /  34635.4 hPa Calm     91 % 0.0 in /  0 mm 0.0 W/m2 CLR
06:56 -5.0 °F /  -20.6 °C -6.2 °F /  -21.2 °C 1022.9 in /  34635.4 hPa Calm     91 % 0.0 in /  0 mm 0.0 W/m2 CLR
07:01 -5.0 °F /  -20.6 °C -6.2 °F /  -21.2 °C 1022.9 in /  34635.4 hPa Calm     91 % 0.0 in /  0 mm 0.0 W/m2 CLR
07:06 -5.0 °F /  -20.6 °C -6.2 °F /  -21.2 °C 1022.9 in /  34635.4 hPa Calm     91 % 0.0 in /  0 mm 0.0 W/m2 CLR
07:11 -5.6 °F /  -20.9 °C -6.8 °F /  -21.6 °C 1022.9 in /  34635.4 hPa Calm     91 % 0.0 in /  0 mm 0.0 W/m2 CLR
07:16 -5.0 °F /  -20.6 °C -6.2 °F /  -21.2 °C 1022.9 in /  34635.4 hPa Calm     91 % 0.0 in /  0 mm 0.0 W/m2 CLR
07:21 -5.0 °F /  -20.6 °C -6.2 °F /  -21.2 °C 1022.9 in /  34635.4 hPa Calm     91 % 0.0 in /  0 mm 0.0 W/m2 CLR
07:26 -5.0 °F /  -20.6 °C -6.2 °F /  -21.2 °C 1022.9 in /  34635.4 hPa Calm     91 % 0.0 in /  0 mm 0.0 W/m2 CLR
07:31 -5.6 °F /  -20.9 °C -6.8 °F /  -21.6 °C 1022.9 in /  34635.4 hPa Calm     91 % 0.0 in /  0 mm 0.0 W/m2 CLR
07:36 -5.6 °F /  -20.9 °C -6.8 °F /  -21.6 °C 1022.9 in /  34635.4 hPa Calm     91 % 0.0 in /  0 mm 0.0 W/m2 CLR
07:41 -5.0 °F /  -20.6 °C -6.2 °F /  -21.2 °C 1022.6 in /  34625.2 hPa Calm     91 % 0.0 in /  0 mm 0.0 W/m2 CLR
07:46 -5.0 °F /  -20.6 °C -6.2 °F /  -21.2 °C 1022.9 in /  34635.4 hPa Calm     91 % 0.0 in /  0 mm 0.0 W/m2 CLR
07:51 -5.0 °F /  -20.6 °C -6.2 °F /  -21.2 °C 1022.9 in /  34635.4 hPa Calm     91 % 0.0 in /  0 mm 0.0 W/m2 CLR
07:56 -5.0 °F /  -20.6 °C -6.2 °F /  -21.2 °C 1022.9 in /  34635.4 hPa Calm     91 % 0.0 in /  0 mm 0.0 W/m2 CLR
08:01 -5.0 °F /  -20.6 °C -6.2 °F /  -21.2 °C 1022.9 in /  34635.4 hPa Calm     91 % 0.0 in /  0 mm 0.0 W/m2 OVC
08:06 -5.0 °F /  -20.6 °C -6.2 °F /  -21.2 °C 1022.9 in /  34635.4 hPa Calm     91 % 0.0 in /  0 mm 7.0 W/m2 BKN
08:11 -5.0 °F /  -20.6 °C -6.2 °F /  -21.2 °C 1022.9 in /  34635.4 hPa Calm     91 % 0.0 in /  0 mm 9.0 W/m2 BKN
08:16 -5.0 °F /  -20.6 °C -6.1 °F /  -21.2 °C 1022.9 in /  34635.4 hPa Calm     92 % 0.0 in /  0 mm 11.0 W/m2 BKN
08:21 -5.0 °F /  -20.6 °C -6.1 °F /  -21.2 °C 1022.9 in /  34635.4 hPa Calm     92 % 0.0 in /  0 mm 14.0 W/m2 BKN
08:26 -5.0 °F /  -20.6 °C -6.1 °F /  -21.2 °C 1022.9 in /  34635.4 hPa Calm     92 % 0.0 in /  0 mm 18.0 W/m2 BKN
08:31 -5.0 °F /  -20.6 °C -6.1 °F /  -21.2 °C 1022.9 in /  34635.4 hPa Calm     92 % 0.0 in /  0 mm 19.0 W/m2 BKN
08:36 -5.0 °F /  -20.6 °C -6.1 °F /  -21.2 °C 1022.9 in /  34635.4 hPa Calm     92 % 0.0 in /  0 mm 25.0 W/m2 BKN
08:41 -5.0 °F /  -20.6 °C -6.1 °F /  -21.2 °C 1022.9 in /  34635.4 hPa Calm     92 % 0.0 in /  0 mm 37.0 W/m2 BKN
08:46 -5.0 °F /  -20.6 °C -6.1 °F /  -21.2 °C 1022.9 in /  34635.4 hPa Calm     92 % 0.0 in /  0 mm 69.0 W/m2 FEW
08:51 -4.4 °F /  -20.2 °C -5.7 °F /  -20.9 °C 1022.9 in /  34635.4 hPa Calm     91 % 0.0 in /  0 mm 86.0 W/m2 CLR
08:56 -4.4 °F /  -20.2 °C -5.6 °F /  -20.9 °C 1022.9 in /  34635.4 hPa Calm     92 % 0.0 in /  0 mm 107.0 W/m2 CLR
09:01 -3.9 °F /  -19.9 °C -5.2 °F /  -20.7 °C 1022.9 in /  34635.4 hPa Calm     91 % 0.0 in /  0 mm 127.0 W/m2 CLR
09:06 -3.9 °F /  -19.9 °C -5.2 °F /  -20.7 °C 1022.9 in /  34635.4 hPa Calm     91 % 0.0 in /  0 mm 141.0 W/m2 CLR
09:11 -3.9 °F /  -19.9 °C -5.2 °F /  -20.7 °C 1022.9 in /  34635.4 hPa Calm     91 % 0.0 in /  0 mm 144.0 W/m2 CLR
09:16 -3.3 °F /  -19.6 °C -4.7 °F /  -20.4 °C 1022.9 in /  34635.4 hPa Calm     90 % 0.0 in /  0 mm 127.0 W/m2 CLR
09:21 -3.3 °F /  -19.6 °C -4.7 °F /  -20.4 °C 1022.9 in /  34635.4 hPa Calm     90 % 0.0 in /  0 mm 179.0 W/m2 CLR
09:26 -3.3 °F /  -19.6 °C -4.7 °F /  -20.4 °C 1022.9 in /  34635.4 hPa Calm     90 % 0.0 in /  0 mm 195.0 W/m2 CLR
09:31 -2.8 °F /  -19.3 °C -4.2 °F /  -20.1 °C 1022.9 in /  34635.4 hPa Calm     90 % 0.0 in /  0 mm 95.0 W/m2 CLR
09:36 -2.8 °F /  -19.3 °C -4.3 °F /  -20.2 °C 1022.9 in /  34635.4 hPa Calm     89 % 0.3 in /  7.62 mm 227.0 W/m2 RA
09:41 -2.2 °F /  -19 °C -3.8 °F /  -19.9 °C 1022.9 in /  34635.4 hPa Calm     89 % 0.3 in /  7.62 mm 244.0 W/m2 CLR
09:46 -2.2 °F /  -19 °C -3.9 °F /  -19.9 °C 1022.9 in /  34635.4 hPa Calm     88 % 0.3 in /  7.62 mm 230.0 W/m2 CLR
09:51 -1.7 °F /  -18.7 °C -3.4 °F /  -19.7 °C 1022.9 in /  34635.4 hPa Calm     88 % 0.3 in /  7.62 mm 279.0 W/m2 CLR
09:56 -1.7 °F /  -18.7 °C -3.4 °F /  -19.7 °C 1022.9 in /  34635.4 hPa Calm     88 % 0.3 in /  7.62 mm 292.0 W/m2 CLR
10:01 -1.1 °F /  -18.4 °C -2.8 °F /  -19.3 °C 1022.9 in /  34635.4 hPa Calm     88 % 0.3 in /  7.62 mm 304.0 W/m2 CLR
10:06 -0.6 °F /  -18.1 °C -2.3 °F /  -19.1 °C 1022.9 in /  34635.4 hPa Calm     88 % 0.3 in /  7.62 mm 322.0 W/m2 CLR
10:11 0.0 °F /  -17.8 °C -1.9 °F /  -18.8 °C 1022.9 in /  34635.4 hPa Calm     87 % 0.3 in /  7.62 mm 334.0 W/m2 CLR
10:16 0.0 °F /  -17.8 °C -2.1 °F /  -18.9 °C 1022.9 in /  34635.4 hPa Calm     86 % 0.3 in /  7.62 mm 341.0 W/m2 CLR
10:21 0.6 °F /  -17.4 °C -1.8 °F /  -18.8 °C 1022.9 in /  34635.4 hPa Calm     84 % 0.5 in /  12.7 mm 360.0 W/m2 RA
10:26 1.7 °F /  -16.8 °C -0.7 °F /  -18.2 °C 1023.2 in /  34645.6 hPa Calm     84 % 0.5 in /  12.7 mm 367.0 W/m2 CLR
10:31 2.2 °F /  -16.6 °C -0.4 °F /  -18 °C 1023.2 in /  34645.6 hPa Calm     83 % 0.5 in /  12.7 mm 243.0 W/m2 CLR
10:36 2.2 °F /  -16.6 °C -1.4 °F /  -18.6 °C 1023.2 in /  34645.6 hPa NW 20.4 mph /  32.8 km/h 20.4 mph /  32.8 km/h 77 % 0.3 in /  7.62 mm 216.0 W/m2 CLR
10:41 2.8 °F /  -16.2 °C -2.2 °F /  -19 °C 1023.2 in /  34645.6 hPa WNW 13.0 mph /  20.9 km/h 13.0 mph /  20.9 km/h 70 % 0.3 in /  7.62 mm 281.0 W/m2 CLR
10:43 2.8 °F /  -16.2 °C -2.2 °F /  -19 °C 1023.2 in /  34645.6 hPa NW 5.6 mph /  9 km/h 5.6 mph /  9 km/h 70 % 0.3 in /  7.62 mm 406.0 W/m2 CLR
10:48 3.3 °F /  -15.9 °C -2.0 °F /  -18.9 °C 1023.2 in /  34645.6 hPa WNW 5.6 mph /  9 km/h 5.6 mph /  9 km/h 68 % 0.3 in /  7.62 mm 432.0 W/m2 CLR
10:54 3.9 °F /  -15.6 °C -1.9 °F /  -18.8 °C 1023.2 in /  34645.6 hPa NNW 20.4 mph /  32.8 km/h 20.4 mph /  32.8 km/h 66 % 0.3 in /  7.62 mm 343.0 W/m2 CLR
10:59 4.4 °F /  -15.3 °C -1.2 °F /  -18.4 °C 1023.2 in /  34645.6 hPa NNW 5.6 mph /  9 km/h 5.6 mph /  9 km/h 67 % 0.3 in /  7.62 mm 396.0 W/m2 CLR
11:04 4.4 °F /  -15.3 °C -1.3 °F /  -18.5 °C 1023.2 in /  34645.6 hPa NNW 20.9 mph /  33.6 km/h 20.9 mph /  33.6 km/h 66 % 0.3 in /  7.62 mm 415.0 W/m2 CLR
11:09 4.4 °F /  -15.3 °C -1.2 °F /  -18.4 °C 1023.2 in /  34645.6 hPa WNW 6.4 mph /  10.3 km/h 6.4 mph /  10.3 km/h 67 % 0.3 in /  7.62 mm 429.0 W/m2 CLR
11:14 5.0 °F /  -15 °C -0.6 °F /  -18.1 °C 1023.2 in /  34645.6 hPa NNW 4.8 mph /  7.7 km/h 4.8 mph /  7.7 km/h 67 % 0.3 in /  7.62 mm 399.0 W/m2 CLR
11:19 5.0 °F /  -15 °C -1.3 °F /  -18.5 °C 1023.2 in /  34645.6 hPa WNW 16.7 mph /  26.9 km/h 16.7 mph /  26.9 km/h 64 % 0.0 in /  0 mm 459.0 W/m2 CLR
11:24 5.0 °F /  -15 °C -0.8 °F /  -18.2 °C 1023.2 in /  34645.6 hPa NW 18.5 mph /  29.8 km/h 18.5 mph /  29.8 km/h 66 % 0.0 in /  0 mm 466.0 W/m2 CLR
11:29 5.0 °F /  -15 °C -1.1 °F /  -18.4 °C 1023.2 in /  34645.6 hPa West 3.7 mph /  6 km/h 3.7 mph /  6 km/h 65 % 0.0 in /  0 mm 506.0 W/m2 CLR
11:34 5.6 °F /  -14.7 °C -0.9 °F /  -18.3 °C 1023.2 in /  34645.6 hPa WNW 5.6 mph /  9 km/h 5.6 mph /  9 km/h 63 % 0.0 in /  0 mm 520.0 W/m2 CLR
11:39 5.6 °F /  -14.7 °C -0.7 °F /  -18.2 °C 1023.2 in /  34645.6 hPa West 5.6 mph /  9 km/h 5.6 mph /  9 km/h 64 % 0.0 in /  0 mm 520.0 W/m2 CLR
11:44 5.6 °F /  -14.7 °C -0.5 °F /  -18.1 °C 1023.2 in /  34645.6 hPa NW 11.1 mph /  17.9 km/h 11.1 mph /  17.9 km/h 65 % 0.0 in /  0 mm 526.0 W/m2 CLR
11:49 5.6 °F /  -14.7 °C -1.2 °F /  -18.4 °C 1023.6 in /  34659.1 hPa North 17.7 mph /  28.5 km/h 17.7 mph /  28.5 km/h 62 % 0.0 in /  0 mm 533.0 W/m2 CLR
11:54 6.1 °F /  -14.4 °C -0.2 °F /  -17.9 °C 1023.2 in /  34645.6 hPa WNW 18.5 mph /  29.8 km/h 18.5 mph /  29.8 km/h 64 % 0.0 in /  0 mm 513.0 W/m2 CLR
11:59 6.1 °F /  -14.4 °C -0.2 °F /  -17.9 °C 1023.2 in /  34645.6 hPa NNW 18.5 mph /  29.8 km/h 18.5 mph /  29.8 km/h 64 % 0.0 in /  0 mm 577.0 W/m2 CLR
12:04 6.7 °F /  -14.1 °C 0.3 °F /  -17.6 °C 1023.2 in /  34645.6 hPa WNW 20.4 mph /  32.8 km/h 20.4 mph /  32.8 km/h 64 % 0.0 in /  0 mm 541.0 W/m2 CLR
12:09 6.7 °F /  -14.1 °C -0.3 °F /  -17.9 °C 1023.2 in /  34645.6 hPa WNW 18.5 mph /  29.8 km/h 18.5 mph /  29.8 km/h 61 % 0.0 in /  0 mm 527.0 W/m2 CLR
12:14 6.7 °F /  -14.1 °C -0.1 °F /  -17.8 °C 1023.6 in /  34659.1 hPa WNW 5.6 mph /  9 km/h 5.6 mph /  9 km/h 62 % 0.0 in /  0 mm 599.0 W/m2 CLR
12:19 6.7 °F /  -14.1 °C -0.6 °F /  -18.1 °C 1023.2 in /  34645.6 hPa NW 14.8 mph /  23.8 km/h 14.8 mph /  23.8 km/h 60 % 0.0 in /  0 mm 617.0 W/m2 CLR
12:24 7.2 °F /  -13.8 °C 0.4 °F /  -17.6 °C 1023.2 in /  34645.6 hPa NNW 16.7 mph /  26.9 km/h 16.7 mph /  26.9 km/h 62 % 0.0 in /  0 mm 640.0 W/m2 CLR
12:29 7.2 °F /  -13.8 °C -0.3 °F /  -17.9 °C 1023.2 in /  34645.6 hPa WNW 22.2 mph /  35.7 km/h 22.2 mph /  35.7 km/h 59 % 0.0 in /  0 mm 541.0 W/m2 CLR
12:34 7.2 °F /  -13.8 °C 0.2 °F /  -17.7 °C 1023.2 in /  34645.6 hPa North 18.5 mph /  29.8 km/h 18.5 mph /  29.8 km/h 61 % 0.0 in /  0 mm 431.0 W/m2 CLR
12:39 7.2 °F /  -13.8 °C 0.2 °F /  -17.7 °C 1023.2 in /  34645.6 hPa North 18.5 mph /  29.8 km/h 18.5 mph /  29.8 km/h 61 % 0.0 in /  0 mm 387.0 W/m2 CLR
12:44 7.2 °F /  -13.8 °C 0.2 °F /  -17.7 °C 1023.2 in /  34645.6 hPa NW 20.4 mph /  32.8 km/h 20.4 mph /  32.8 km/h 61 % 0.0 in /  0 mm 573.0 W/m2 CLR
12:49 7.8 °F /  -13.4 °C 0.5 °F /  -17.5 °C 1022.9 in /  34635.4 hPa NNW 13.0 mph /  20.9 km/h 13.0 mph /  20.9 km/h 60 % 0.0 in /  0 mm 548.0 W/m2 CLR
12:54 7.8 °F /  -13.4 °C 0.7 °F /  -17.4 °C 1023.2 in /  34645.6 hPa NNW 22.2 mph /  35.7 km/h 22.2 mph /  35.7 km/h 61 % 0.0 in /  0 mm 554.0 W/m2 CLR
12:59 8.3 °F /  -13.2 °C 1.2 °F /  -17.1 °C 1023.2 in /  34645.6 hPa NNW 18.5 mph /  29.8 km/h 18.5 mph /  29.8 km/h 61 % 0.0 in /  0 mm 610.0 W/m2 CLR
13:04 8.3 °F /  -13.2 °C 0.8 °F /  -17.3 °C 1022.9 in /  34635.4 hPa North 13.0 mph /  20.9 km/h 13.0 mph /  20.9 km/h 59 % 0.0 in /  0 mm 515.0 W/m2 CLR
13:09 8.3 °F /  -13.2 °C 0.8 °F /  -17.3 °C 1022.9 in /  34635.4 hPa North 16.7 mph /  26.9 km/h 16.7 mph /  26.9 km/h 59 % 0.0 in /  0 mm 533.0 W/m2 CLR
13:14 8.3 °F /  -13.2 °C 1.0 °F /  -17.2 °C 1022.6 in /  34625.2 hPa WNW 13.0 mph /  20.9 km/h 13.0 mph /  20.9 km/h 60 % 0.0 in /  0 mm 512.0 W/m2 CLR
13:19 8.3 °F /  -13.2 °C 0.1 °F /  -17.7 °C 1022.6 in /  34625.2 hPa WNW 18.5 mph /  29.8 km/h 18.5 mph /  29.8 km/h 56 % 0.0 in /  0 mm 552.0 W/m2 CLR
13:25 8.3 °F /  -13.2 °C 0.6 °F /  -17.4 °C 1022.2 in /  34611.7 hPa NNW 14.8 mph /  23.8 km/h 15.4 mph /  24.8 km/h 58 % 0.0 in /  0 mm 548.0 W/m2 CLR
13:30 8.3 °F /  -13.2 °C 0.1 °F /  -17.7 °C 1022.2 in /  34611.7 hPa NNW 20.9 mph /  33.6 km/h 20.9 mph /  33.6 km/h 56 % 0.0 in /  0 mm 480.0 W/m2 CLR
13:35 8.3 °F /  -13.2 °C 0.6 °F /  -17.4 °C 1022.2 in /  34611.7 hPa WNW 18.5 mph /  29.8 km/h 18.5 mph /  29.8 km/h 58 % 0.0 in /  0 mm 501.0 W/m2 CLR
13:40 8.3 °F /  -13.2 °C 0.6 °F /  -17.4 °C 1021.9 in /  34601.5 hPa NW 14.5 mph /  23.3 km/h 14.5 mph /  23.3 km/h 58 % 0.0 in /  0 mm 490.0 W/m2 CLR
13:45 8.3 °F /  -13.2 °C 0.3 °F /  -17.6 °C 1021.9 in /  34601.5 hPa NW 18.5 mph /  29.8 km/h 18.5 mph /  29.8 km/h 57 % 0.0 in /  0 mm 566.0 W/m2 CLR
13:50 8.9 °F /  -12.8 °C 0.6 °F /  -17.4 °C 1021.9 in /  34601.5 hPa NW 13.0 mph /  20.9 km/h 13.0 mph /  20.9 km/h 56 % 0.0 in /  0 mm 571.0 W/m2 CLR
13:55 8.9 °F /  -12.8 °C 0.1 °F /  -17.7 °C 1021.9 in /  34601.5 hPa NNW 14.8 mph /  23.8 km/h 14.8 mph /  23.8 km/h 54 % 0.0 in /  0 mm 545.0 W/m2 CLR
14:00 8.9 °F /  -12.8 °C -0.4 °F /  -18 °C 1021.6 in /  34591.4 hPa NW 22.2 mph /  35.7 km/h 22.2 mph /  35.7 km/h 52 % 0.0 in /  0 mm 352.0 W/m2 CLR
14:05 8.3 °F /  -13.2 °C 0.3 °F /  -17.6 °C 1021.6 in /  34591.4 hPa NW 11.3 mph /  18.2 km/h 12.1 mph /  19.5 km/h 57 % 0.0 in /  0 mm 399.0 W/m2 CLR
14:10 8.3 °F /  -13.2 °C -1.2 °F /  -18.4 °C 1021.2 in /  34577.8 hPa WNW 13.0 mph /  20.9 km/h 13.0 mph /  20.9 km/h 51 % 0.0 in /  0 mm 316.0 W/m2 CLR
14:15 8.3 °F /  -13.2 °C -0.9 °F /  -18.3 °C 1021.2 in /  34577.8 hPa NW 14.8 mph /  23.8 km/h 14.8 mph /  23.8 km/h 52 % 0.0 in /  0 mm 345.0 W/m2 CLR
14:20 8.3 °F /  -13.2 °C -0.4 °F /  -18 °C 1021.2 in /  34577.8 hPa NNW 18.5 mph /  29.8 km/h 18.5 mph /  29.8 km/h 54 % 0.0 in /  0 mm 399.0 W/m2 CLR
14:26 8.3 °F /  -13.2 °C -0.2 °F /  -17.9 °C 1021.2 in /  34577.8 hPa NW 18.5 mph /  29.8 km/h 18.5 mph /  29.8 km/h 55 % 0.0 in /  0 mm 364.0 W/m2 CLR
14:31 8.9 °F /  -12.8 °C -0.7 °F /  -18.2 °C 1021.2 in /  34577.8 hPa NW 12.9 mph /  20.8 km/h 12.9 mph /  20.8 km/h 51 % 0.0 in /  0 mm 508.0 W/m2 CLR
14:36 9.4 °F /  -12.6 °C 0.8 °F /  -17.3 °C 1020.9 in /  34567.7 hPa West 1.9 mph /  3.1 km/h 1.9 mph /  3.1 km/h 55 % 0.0 in /  0 mm 559.0 W/m2 CLR
14:41 9.4 °F /  -12.6 °C 0.8 °F /  -17.3 °C 1020.9 in /  34567.7 hPa West 7.4 mph /  11.9 km/h 7.4 mph /  11.9 km/h 55 % 0.0 in /  0 mm 471.0 W/m2 CLR
14:46 9.4 °F /  -12.6 °C 0.1 °F /  -17.7 °C 1020.9 in /  34567.7 hPa NW 3.7 mph /  6 km/h 3.7 mph /  6 km/h 52 % 0.0 in /  0 mm 566.0 W/m2 CLR
14:51 9.4 °F /  -12.6 °C -0.2 °F /  -17.9 °C 1020.9 in /  34567.7 hPa NW 14.8 mph /  23.8 km/h 14.8 mph /  23.8 km/h 51 % 0.0 in /  0 mm 552.0 W/m2 CLR
14:56 10.0 °F /  -12.2 °C 0.3 °F /  -17.6 °C 1020.9 in /  34567.7 hPa NNW 25.9 mph /  41.7 km/h 25.9 mph /  41.7 km/h 51 % 0.0 in /  0 mm 531.0 W/m2 CLR
15:01 10.0 °F /  -12.2 °C 0.6 °F /  -17.4 °C 1020.9 in /  34567.7 hPa North 18.5 mph /  29.8 km/h 18.5 mph /  29.8 km/h 52 % 0.0 in /  0 mm 513.0 W/m2 CLR
15:06 10.0 °F /  -12.2 °C 0.3 °F /  -17.6 °C 1020.5 in /  34554.1 hPa North 18.5 mph /  29.8 km/h 18.5 mph /  29.8 km/h 51 % 0.0 in /  0 mm 496.0 W/m2 CLR
15:11 10.0 °F /  -12.2 °C 0.3 °F /  -17.6 °C 1020.5 in /  34554.1 hPa WNW 18.5 mph /  29.8 km/h 18.5 mph /  29.8 km/h 51 % 0.0 in /  0 mm 489.0 W/m2 CLR
15:16 10.0 °F /  -12.2 °C 0.3 °F /  -17.6 °C 1020.5 in /  34554.1 hPa NNW 16.7 mph /  26.9 km/h 16.7 mph /  26.9 km/h 51 % 0.0 in /  0 mm 478.0 W/m2 CLR
15:21 10.0 °F /  -12.2 °C -0.8 °F /  -18.2 °C 1020.5 in /  34554.1 hPa NW 20.4 mph /  32.8 km/h 20.4 mph /  32.8 km/h 47 % 0.0 in /  0 mm 471.0 W/m2 CLR
15:26 10.0 °F /  -12.2 °C -0.2 °F /  -17.9 °C 1020.5 in /  34554.1 hPa West 16.7 mph /  26.9 km/h 16.7 mph /  26.9 km/h 49 % 0.0 in /  0 mm 468.0 W/m2 CLR
15:33 9.4 °F /  -12.6 °C -0.4 °F /  -18 °C 1020.5 in /  34554.1 hPa NNW 20.4 mph /  32.8 km/h 20.4 mph /  32.8 km/h 50 % 0.0 in /  0 mm 411.0 W/m2 CLR
15:38 9.4 °F /  -12.6 °C -0.4 °F /  -18 °C 1020.5 in /  34554.1 hPa WNW 14.8 mph /  23.8 km/h 14.8 mph /  23.8 km/h 50 % 0.0 in /  0 mm 248.0 W/m2 CLR
15:43 9.4 °F /  -12.6 °C 0.1 °F /  -17.7 °C 1020.5 in /  34554.1 hPa NW 19.3 mph /  31.1 km/h 19.3 mph /  31.1 km/h 52 % 0.0 in /  0 mm 244.0 W/m2 CLR
15:48 9.4 °F /  -12.6 °C -0.2 °F /  -17.9 °C 1020.5 in /  34554.1 hPa NNW 19.3 mph /  31.1 km/h 19.3 mph /  31.1 km/h 51 % 0.0 in /  0 mm 403.0 W/m2 CLR
15:53 10.0 °F /  -12.2 °C 0.3 °F /  -17.6 °C 1020.5 in /  34554.1 hPa North 24.1 mph /  38.8 km/h 24.1 mph /  38.8 km/h 51 % 0.0 in /  0 mm 360.0 W/m2 CLR
15:58 9.4 °F /  -12.6 °C -0.2 °F /  -17.9 °C 1020.5 in /  34554.1 hPa NW 16.7 mph /  26.9 km/h 16.7 mph /  26.9 km/h 51 % 0.0 in /  0 mm 221.0 W/m2 CLR
16:03 9.4 °F /  -12.6 °C -0.2 °F /  -17.9 °C 1020.5 in /  34554.1 hPa NNW 25.9 mph /  41.7 km/h 25.9 mph /  41.7 km/h 51 % 0.0 in /  0 mm 237.0 W/m2 CLR
16:08 9.4 °F /  -12.6 °C 0.1 °F /  -17.7 °C 1020.5 in /  34554.1 hPa North 20.4 mph /  32.8 km/h 20.4 mph /  32.8 km/h 52 % 0.0 in /  0 mm 257.0 W/m2 CLR
16:13 9.4 °F /  -12.6 °C 0.1 °F /  -17.7 °C 1020.2 in /  34544 hPa NNW 22.5 mph /  36.2 km/h 22.5 mph /  36.2 km/h 52 % 0.0 in /  0 mm 202.0 W/m2 CLR
16:18 9.4 °F /  -12.6 °C -0.2 °F /  -17.9 °C 1020.2 in /  34544 hPa NNW 25.9 mph /  41.7 km/h 25.9 mph /  41.7 km/h 51 % 0.0 in /  0 mm 188.0 W/m2 CLR
16:23 9.4 °F /  -12.6 °C 0.1 °F /  -17.7 °C 1020.2 in /  34544 hPa NNW 24.1 mph /  38.8 km/h 24.1 mph /  38.8 km/h 52 % 0.0 in /  0 mm 174.0 W/m2 CLR
16:28 8.9 °F /  -12.8 °C -0.2 °F /  -17.9 °C 1020.2 in /  34544 hPa NNW 27.8 mph /  44.7 km/h 27.8 mph /  44.7 km/h 53 % 0.0 in /  0 mm 165.0 W/m2 CLR
16:33 8.9 °F /  -12.8 °C -0.7 °F /  -18.2 °C 1020.2 in /  34544 hPa NW 22.5 mph /  36.2 km/h 22.5 mph /  36.2 km/h 51 % 0.0 in /  0 mm 155.0 W/m2 CLR
16:38 8.9 °F /  -12.8 °C -0.2 °F /  -17.9 °C 1020.2 in /  34544 hPa North 22.5 mph /  36.2 km/h 22.5 mph /  36.2 km/h 53 % 0.0 in /  0 mm 148.0 W/m2 CLR
16:43 8.9 °F /  -12.8 °C 0.1 °F /  -17.7 °C 1020.2 in /  34544 hPa North 18.5 mph /  29.8 km/h 18.5 mph /  29.8 km/h 54 % 0.0 in /  0 mm 146.0 W/m2 CLR
16:48 8.9 °F /  -12.8 °C -0.2 °F /  -17.9 °C 1020.2 in /  34544 hPa NNW 24.1 mph /  38.8 km/h 24.1 mph /  38.8 km/h 53 % 0.0 in /  0 mm 135.0 W/m2 CLR
16:53 8.9 °F /  -12.8 °C 0.1 °F /  -17.7 °C 1020.2 in /  34544 hPa North 16.7 mph /  26.9 km/h 16.7 mph /  26.9 km/h 54 % 0.0 in /  0 mm 128.0 W/m2 CLR
16:58 8.9 °F /  -12.8 °C 0.3 °F /  -17.6 °C 1020.2 in /  34544 hPa North 18.5 mph /  29.8 km/h 18.5 mph /  29.8 km/h 55 % 0.0 in /  0 mm 123.0 W/m2 CLR
17:03 8.3 °F /  -13.2 °C -0.4 °F /  -18 °C 1020.2 in /  34544 hPa North 31.5 mph /  50.7 km/h 31.5 mph /  50.7 km/h 54 % 0.0 in /  0 mm 116.0 W/m2 CLR
17:08 8.3 °F /  -13.2 °C -0.2 °F /  -17.9 °C 1020.2 in /  34544 hPa NNW 20.4 mph /  32.8 km/h 20.4 mph /  32.8 km/h 55 % 0.0 in /  0 mm 104.0 W/m2 CLR
17:13 8.3 °F /  -13.2 °C -0.2 °F /  -17.9 °C 1020.5 in /  34554.1 hPa NNW 24.1 mph /  38.8 km/h 24.1 mph /  38.8 km/h 55 % 0.0 in /  0 mm 97.0 W/m2 CLR
17:18 8.3 °F /  -13.2 °C -0.2 °F /  -17.9 °C 1020.5 in /  34554.1 hPa NNW 16.7 mph /  26.9 km/h 16.7 mph /  26.9 km/h 55 % 0.0 in /  0 mm 91.0 W/m2 CLR
17:23 8.3 °F /  -13.2 °C 0.1 °F /  -17.7 °C 1020.5 in /  34554.1 hPa North 16.1 mph /  25.9 km/h 16.1 mph /  25.9 km/h 56 % 0.0 in /  0 mm 95.0 W/m2 CLR
17:28 8.3 °F /  -13.2 °C 0.1 °F /  -17.7 °C 1020.5 in /  34554.1 hPa NW 16.7 mph /  26.9 km/h 16.7 mph /  26.9 km/h 56 % 0.0 in /  0 mm 83.0 W/m2 FEW
17:33 8.3 °F /  -13.2 °C 0.1 °F /  -17.7 °C 1020.2 in /  34544 hPa North 24.1 mph /  38.8 km/h 24.1 mph /  38.8 km/h 56 % 0.0 in /  0 mm 70.0 W/m2 FEW
17:38 8.3 °F /  -13.2 °C 0.1 °F /  -17.7 °C 1020.5 in /  34554.1 hPa NW 20.4 mph /  32.8 km/h 20.4 mph /  32.8 km/h 56 % 0.0 in /  0 mm 58.0 W/m2 SCT
17:43 8.3 °F /  -13.2 °C 0.3 °F /  -17.6 °C 1020.5 in /  34554.1 hPa NNW 22.2 mph /  35.7 km/h 22.2 mph /  35.7 km/h 57 % 0.0 in /  0 mm 44.0 W/m2 BKN
17:48 8.3 °F /  -13.2 °C 0.3 °F /  -17.6 °C 1020.5 in /  34554.1 hPa North 18.5 mph /  29.8 km/h 18.5 mph /  29.8 km/h 57 % 0.0 in /  0 mm 30.0 W/m2 BKN
17:53 7.8 °F /  -13.4 °C 0.3 °F /  -17.6 °C 1020.9 in /  34567.7 hPa North 18.5 mph /  29.8 km/h 18.5 mph /  29.8 km/h 59 % 0.0 in /  0 mm 19.0 W/m2 BKN
17:58 7.8 °F /  -13.4 °C 0.5 °F /  -17.5 °C 1020.9 in /  34567.7 hPa NNW 20.4 mph /  32.8 km/h 20.4 mph /  32.8 km/h 60 % 0.0 in /  0 mm 14.0 W/m2 BKN
18:03 7.8 °F /  -13.4 °C 1.2 °F /  -17.1 °C 1020.9 in /  34567.7 hPa North 25.7 mph /  41.4 km/h 25.7 mph /  41.4 km/h 63 % 0.0 in /  0 mm 14.0 W/m2 BKN
18:08 7.8 °F /  -13.4 °C 1.4 °F /  -17 °C 1020.9 in /  34567.7 hPa NNW 31.5 mph /  50.7 km/h 31.5 mph /  50.7 km/h 64 % 0.0 in /  0 mm 11.0 W/m2 BKN
18:13 7.2 °F /  -13.8 °C 1.3 °F /  -17.1 °C 1020.9 in /  34567.7 hPa NW 24.1 mph /  38.8 km/h 24.1 mph /  38.8 km/h 66 % 0.0 in /  0 mm 9.0 W/m2 BKN
18:18 7.2 °F /  -13.8 °C 1.7 °F /  -16.8 °C 1020.9 in /  34567.7 hPa NW 18.5 mph /  29.8 km/h 18.5 mph /  29.8 km/h 68 % 0.0 in /  0 mm 5.0 W/m2 OVC
18:23 6.7 °F /  -14.1 °C 1.6 °F /  -16.9 °C 1020.9 in /  34567.7 hPa WNW 14.8 mph /  23.8 km/h 14.8 mph /  23.8 km/h 70 % 0.0 in /  0 mm 0.0 W/m2 OVC
18:28 6.7 °F /  -14.1 °C 1.8 °F /  -16.8 °C 1020.9 in /  34567.7 hPa WNW 18.5 mph /  29.8 km/h 18.5 mph /  29.8 km/h 71 % 0.0 in /  0 mm 0.0 W/m2 OVC
18:33 6.7 °F /  -14.1 °C 2.2 °F /  -16.6 °C 1020.9 in /  34567.7 hPa NW 18.5 mph /  29.8 km/h 18.5 mph /  29.8 km/h 73 % 0.0 in /  0 mm 0.0 W/m2 OVC
18:38 6.1 °F /  -14.4 °C 2.0 °F /  -16.7 °C 1020.9 in /  34567.7 hPa NW 14.8 mph /  23.8 km/h 14.8 mph /  23.8 km/h 75 % 0.0 in /  0 mm 0.0 W/m2 CLR
18:43 6.1 °F /  -14.4 °C 2.2 °F /  -16.6 °C 1020.9 in /  34567.7 hPa WNW 14.8 mph /  23.8 km/h 14.8 mph /  23.8 km/h 76 % 0.0 in /  0 mm 0.0 W/m2 CLR
18:48 6.1 °F /  -14.4 °C 2.2 °F /  -16.6 °C 1020.9 in /  34567.7 hPa WNW 14.8 mph /  23.8 km/h 14.8 mph /  23.8 km/h 76 % 0.0 in /  0 mm 0.0 W/m2 CLR
18:53 6.1 °F /  -14.4 °C 2.4 °F /  -16.4 °C 1021.2 in /  34577.8 hPa WNW 14.8 mph /  23.8 km/h 14.8 mph /  23.8 km/h 77 % 0.0 in /  0 mm 0.0 W/m2 CLR
18:58 6.1 °F /  -14.4 °C 2.2 °F /  -16.6 °C 1021.2 in /  34577.8 hPa WNW 11.1 mph /  17.9 km/h 11.1 mph /  17.9 km/h 76 % 0.0 in /  0 mm 0.0 W/m2 CLR
19:03 6.1 °F /  -14.4 °C 2.2 °F /  -16.6 °C 1021.2 in /  34577.8 hPa West 5.6 mph /  9 km/h 5.6 mph /  9 km/h 76 % 0.0 in /  0 mm 0.0 W/m2 CLR
19:08 6.1 °F /  -14.4 °C 2.4 °F /  -16.4 °C 1021.2 in /  34577.8 hPa West 7.4 mph /  11.9 km/h 7.4 mph /  11.9 km/h 77 % 0.0 in /  0 mm 0.0 W/m2 CLR
19:13 5.6 °F /  -14.7 °C 1.8 °F /  -16.8 °C 1021.2 in /  34577.8 hPa West 7.4 mph /  11.9 km/h 7.4 mph /  11.9 km/h 77 % 0.0 in /  0 mm 0.0 W/m2 CLR
19:18 5.6 °F /  -14.7 °C 2.0 °F /  -16.7 °C 1021.2 in /  34577.8 hPa Calm     78 % 0.0 in /  0 mm 0.0 W/m2 CLR
19:23 5.6 °F /  -14.7 °C 2.0 °F /  -16.7 °C 1021.2 in /  34577.8 hPa Calm     78 % 0.0 in /  0 mm 0.0 W/m2 CLR
19:28 5.6 °F /  -14.7 °C 2.0 °F /  -16.7 °C 1021.2 in /  34577.8 hPa Calm     78 % 0.0 in /  0 mm 0.0 W/m2 CLR
19:33 5.6 °F /  -14.7 °C 1.8 °F /  -16.8 °C 1021.2 in /  34577.8 hPa NW 1.6 mph /  2.6 km/h 1.8 mph /  2.9 km/h 77 % 0.0 in /  0 mm 0.0 W/m2 CLR
19:38 5.6 °F /  -14.7 °C 1.8 °F /  -16.8 °C 1021.2 in /  34577.8 hPa NNW 16.1 mph /  25.9 km/h 16.1 mph /  25.9 km/h 77 % 0.0 in /  0 mm 0.0 W/m2 CLR
19:43 5.6 °F /  -14.7 °C 1.7 °F /  -16.8 °C 1021.2 in /  34577.8 hPa NW 16.7 mph /  26.9 km/h 16.7 mph /  26.9 km/h 76 % 0.0 in /  0 mm 0.0 W/m2 CLR
19:49 6.1 °F /  -14.4 °C 2.2 °F /  -16.6 °C 1021.6 in /  34591.4 hPa NW 18.5 mph /  29.8 km/h 18.5 mph /  29.8 km/h 76 % 0.0 in /  0 mm 0.0 W/m2 CLR
19:54 6.1 °F /  -14.4 °C 2.2 °F /  -16.6 °C 1021.6 in /  34591.4 hPa NNW 20.4 mph /  32.8 km/h 20.4 mph /  32.8 km/h 76 % 0.0 in /  0 mm 0.0 W/m2 CLR
19:59 6.1 °F /  -14.4 °C 2.4 °F /  -16.4 °C 1021.6 in /  34591.4 hPa North 27.8 mph /  44.7 km/h 27.8 mph /  44.7 km/h 77 % 0.0 in /  0 mm 0.0 W/m2 CLR
20:04 6.1 °F /  -14.4 °C 2.6 °F /  -16.3 °C 1021.6 in /  34591.4 hPa NNW 29.6 mph /  47.6 km/h 29.6 mph /  47.6 km/h 78 % 0.0 in /  0 mm 0.0 W/m2 CLR
20:09 6.1 °F /  -14.4 °C 2.7 °F /  -16.3 °C 1021.6 in /  34591.4 hPa NNW 31.5 mph /  50.7 km/h 31.5 mph /  50.7 km/h 79 % 0.0 in /  0 mm 0.0 W/m2 CLR
20:14 6.1 °F /  -14.4 °C 2.7 °F /  -16.3 °C 1021.6 in /  34591.4 hPa NW 27.8 mph /  44.7 km/h 27.8 mph /  44.7 km/h 79 % 0.0 in /  0 mm 0.0 W/m2 CLR
20:19 6.1 °F /  -14.4 °C 2.7 °F /  -16.3 °C 1021.6 in /  34591.4 hPa NW 31.5 mph /  50.7 km/h 31.5 mph /  50.7 km/h 79 % 0.0 in /  0 mm 0.0 W/m2 CLR
20:24 6.7 °F /  -14.1 °C 3.4 °F /  -15.9 °C 1021.6 in /  34591.4 hPa NW 25.9 mph /  41.7 km/h 25.9 mph /  41.7 km/h 80 % 0.0 in /  0 mm 0.0 W/m2 CLR
20:29 6.7 °F /  -14.1 °C 3.4 °F /  -15.9 °C 1021.6 in /  34591.4 hPa NW 27.8 mph /  44.7 km/h 27.8 mph /  44.7 km/h 80 % 0.0 in /  0 mm 0.0 W/m2 CLR
20:34 6.7 °F /  -14.1 °C 3.4 °F /  -15.9 °C 1021.6 in /  34591.4 hPa North 24.1 mph /  38.8 km/h 24.1 mph /  38.8 km/h 80 % 0.0 in /  0 mm 0.0 W/m2 CLR
20:39 6.7 °F /  -14.1 °C 3.4 °F /  -15.9 °C 1021.9 in /  34601.5 hPa NNW 33.3 mph /  53.6 km/h 33.3 mph /  53.6 km/h 80 % 0.0 in /  0 mm 0.0 W/m2 CLR
20:44 6.7 °F /  -14.1 °C 3.4 °F /  -15.9 °C 1021.9 in /  34601.5 hPa NW 31.5 mph /  50.7 km/h 31.5 mph /  50.7 km/h 80 % 0.0 in /  0 mm 0.0 W/m2 CLR
20:49 6.7 °F /  -14.1 °C 3.4 °F /  -15.9 °C 1021.9 in /  34601.5 hPa North 32.2 mph /  51.8 km/h 32.2 mph /  51.8 km/h 80 % 0.0 in /  0 mm 0.0 W/m2 CLR
20:54 6.7 °F /  -14.1 °C 3.6 °F /  -15.8 °C 1021.9 in /  34601.5 hPa NW 32.2 mph /  51.8 km/h 32.2 mph /  51.8 km/h 81 % 0.0 in /  0 mm 0.0 W/m2 CLR
20:59 6.7 °F /  -14.1 °C 3.6 °F /  -15.8 °C 1021.9 in /  34601.5 hPa NNW 37.0 mph /  59.5 km/h 37.0 mph /  59.5 km/h 81 % 0.0 in /  0 mm 0.0 W/m2 CLR
21:04 6.7 °F /  -14.1 °C 3.6 °F /  -15.8 °C 1022.2 in /  34611.7 hPa NW 37.0 mph /  59.5 km/h 37.0 mph /  59.5 km/h 81 % 0.0 in /  0 mm 0.0 W/m2 CLR
21:09 6.7 °F /  -14.1 °C 3.6 °F /  -15.8 °C 1022.2 in /  34611.7 hPa North 33.8 mph /  54.4 km/h 33.8 mph /  54.4 km/h 81 % 0.0 in /  0 mm 0.0 W/m2 CLR
21:14 6.7 °F /  -14.1 °C 3.8 °F /  -15.7 °C 1022.2 in /  34611.7 hPa North 29.6 mph /  47.6 km/h 29.6 mph /  47.6 km/h 82 % 0.0 in /  0 mm 0.0 W/m2 CLR
21:19 6.7 °F /  -14.1 °C 3.8 °F /  -15.7 °C 1022.2 in /  34611.7 hPa NW 50.0 mph /  80.5 km/h 50.0 mph /  80.5 km/h 82 % 0.0 in /  0 mm 0.0 W/m2 CLR
21:24 6.7 °F /  -14.1 °C 3.6 °F /  -15.8 °C 1022.2 in /  34611.7 hPa North 33.3 mph /  53.6 km/h 33.3 mph /  53.6 km/h 81 % 0.0 in /  0 mm 0.0 W/m2 CLR
21:29 6.7 °F /  -14.1 °C 3.6 °F /  -15.8 °C 1022.2 in /  34611.7 hPa NNW 24.1 mph /  38.8 km/h 24.1 mph /  38.8 km/h 81 % 0.0 in /  0 mm 0.0 W/m2 CLR
21:34 6.7 °F /  -14.1 °C 3.6 °F /  -15.8 °C 1022.2 in /  34611.7 hPa NNW 40.7 mph /  65.5 km/h 40.7 mph /  65.5 km/h 81 % 0.0 in /  0 mm 0.0 W/m2 CLR
21:39 6.7 °F /  -14.1 °C 3.6 °F /  -15.8 °C 1022.6 in /  34625.2 hPa NNW 44.4 mph /  71.5 km/h 44.4 mph /  71.5 km/h 81 % 0.0 in /  0 mm 0.0 W/m2 CLR
21:44 6.1 °F /  -14.4 °C 2.9 °F /  -16.2 °C 1022.6 in /  34625.2 hPa North 48.1 mph /  77.4 km/h 48.1 mph /  77.4 km/h 80 % 0.0 in /  0 mm 0.0 W/m2 CLR
21:49 6.1 °F /  -14.4 °C 2.9 °F /  -16.2 °C 1022.2 in /  34611.7 hPa North 31.5 mph /  50.7 km/h 31.5 mph /  50.7 km/h 80 % 0.0 in /  0 mm 0.0 W/m2 CLR
21:54 6.1 °F /  -14.4 °C 2.9 °F /  -16.2 °C 1022.2 in /  34611.7 hPa NNW 31.5 mph /  50.7 km/h 31.5 mph /  50.7 km/h 80 % 0.0 in /  0 mm 0.0 W/m2 CLR
21:59 6.1 °F /  -14.4 °C 2.9 °F /  -16.2 °C 1022.2 in /  34611.7 hPa NW 35.2 mph /  56.6 km/h 35.2 mph /  56.6 km/h 80 % 0.0 in /  0 mm 0.0 W/m2 CLR
22:04 6.1 °F /  -14.4 °C 2.7 °F /  -16.3 °C 1022.2 in /  34611.7 hPa NW 37.0 mph /  59.5 km/h 37.0 mph /  59.5 km/h 79 % 0.0 in /  0 mm 0.0 W/m2 CLR
22:09 6.1 °F /  -14.4 °C 2.6 °F /  -16.3 °C 1022.2 in /  34611.7 hPa NW 31.5 mph /  50.7 km/h 31.5 mph /  50.7 km/h 78 % 0.0 in /  0 mm 0.0 W/m2 CLR
22:14 5.6 °F /  -14.7 °C 2.0 °F /  -16.7 °C 1022.2 in /  34611.7 hPa NNE 22.5 mph /  36.2 km/h 22.5 mph /  36.2 km/h 78 % 0.0 in /  0 mm 0.0 W/m2 CLR
22:19 6.1 °F /  -14.4 °C 2.6 °F /  -16.3 °C 1022.2 in /  34611.7 hPa NNW 31.5 mph /  50.7 km/h 31.5 mph /  50.7 km/h 78 % 0.0 in /  0 mm 0.0 W/m2 CLR
22:24 6.1 °F /  -14.4 °C 2.4 °F /  -16.4 °C 1022.2 in /  34611.7 hPa NW 38.9 mph /  62.6 km/h 38.9 mph /  62.6 km/h 77 % 0.0 in /  0 mm 0.0 W/m2 CLR
22:29 6.1 °F /  -14.4 °C 2.2 °F /  -16.6 °C 1022.2 in /  34611.7 hPa NW 33.8 mph /  54.4 km/h 33.8 mph /  54.4 km/h 76 % 0.0 in /  0 mm 0.0 W/m2 CLR
22:34 5.6 °F /  -14.7 °C 1.7 °F /  -16.8 °C 1022.2 in /  34611.7 hPa NNW 38.9 mph /  62.6 km/h 38.9 mph /  62.6 km/h 76 % 0.0 in /  0 mm 0.0 W/m2 CLR
22:39 5.6 °F /  -14.7 °C 1.7 °F /  -16.8 °C 1022.2 in /  34611.7 hPa NNW 40.7 mph /  65.5 km/h 40.7 mph /  65.5 km/h 76 % 0.0 in /  0 mm 0.0 W/m2 CLR
22:44 5.6 °F /  -14.7 °C 1.7 °F /  -16.8 °C 1022.2 in /  34611.7 hPa NW 40.7 mph /  65.5 km/h 40.7 mph /  65.5 km/h 76 % 0.0 in /  0 mm 0.0 W/m2 CLR
22:49 5.6 °F /  -14.7 °C 1.8 °F /  -16.8 °C 1022.2 in /  34611.7 hPa NNW 40.2 mph /  64.7 km/h 40.2 mph /  64.7 km/h 77 % 0.0 in /  0 mm 0.0 W/m2 CLR
22:54 5.6 °F /  -14.7 °C 1.8 °F /  -16.8 °C 1022.2 in /  34611.7 hPa NNW 29.6 mph /  47.6 km/h 29.6 mph /  47.6 km/h 77 % 0.0 in /  0 mm 0.0 W/m2 CLR
22:59 5.0 °F /  -15 °C 1.3 °F /  -17.1 °C 1022.2 in /  34611.7 hPa NNW 42.6 mph /  68.6 km/h 42.6 mph /  68.6 km/h 77 % 0.0 in /  0 mm 0.0 W/m2 CLR
23:04 5.6 °F /  -14.7 °C 1.8 °F /  -16.8 °C 1022.2 in /  34611.7 hPa NNW 46.3 mph /  74.5 km/h 46.3 mph /  74.5 km/h 77 % 0.0 in /  0 mm 0.0 W/m2 CLR
23:09 5.6 °F /  -14.7 °C 1.7 °F /  -16.8 °C 1022.2 in /  34611.7 hPa NW 53.7 mph /  86.4 km/h 53.7 mph /  86.4 km/h 76 % 0.0 in /  0 mm 0.0 W/m2 CLR
23:14 5.6 °F /  -14.7 °C 1.7 °F /  -16.8 °C 1021.9 in /  34601.5 hPa NNW 46.3 mph /  74.5 km/h 46.3 mph /  74.5 km/h 76 % 0.0 in /  0 mm 0.0 W/m2 CLR
23:19 5.6 °F /  -14.7 °C 1.7 °F /  -16.8 °C 1021.9 in /  34601.5 hPa NNW 40.7 mph /  65.5 km/h 40.7 mph /  65.5 km/h 76 % 0.0 in /  0 mm 0.0 W/m2 CLR
23:24 5.0 °F /  -15 °C 1.3 °F /  -17.1 °C 1022.2 in /  34611.7 hPa NNW 37.0 mph /  59.5 km/h 37.0 mph /  59.5 km/h 77 % 0.0 in /  0 mm 0.0 W/m2 CLR
23:29 5.0 °F /  -15 °C 1.3 °F /  -17.1 °C 1022.2 in /  34611.7 hPa NNW 42.6 mph /  68.6 km/h 42.6 mph /  68.6 km/h 77 % 0.0 in /  0 mm 0.0 W/m2 CLR
23:34 5.0 °F /  -15 °C 1.5 °F /  -16.9 °C 1022.6 in /  34625.2 hPa NW 42.6 mph /  68.6 km/h 42.6 mph /  68.6 km/h 78 % 0.0 in /  0 mm 0.0 W/m2 CLR
23:39 5.0 °F /  -15 °C 1.5 °F /  -16.9 °C 1022.6 in /  34625.2 hPa NNW 51.8 mph /  83.4 km/h 51.8 mph /  83.4 km/h 78 % 0.0 in /  0 mm 0.0 W/m2 CLR
23:44 5.0 °F /  -15 °C 1.5 °F /  -16.9 °C 1022.2 in /  34611.7 hPa NW 42.6 mph /  68.6 km/h 42.6 mph /  68.6 km/h 78 % 0.0 in /  0 mm 0.0 W/m2 CLR
23:49 5.0 °F /  -15 °C 1.7 °F /  -16.8 °C 1022.2 in /  34611.7 hPa NNW 42.6 mph /  68.6 km/h 42.6 mph /  68.6 km/h 79 % 0.0 in /  0 mm 0.0 W/m2 CLR
23:54 5.0 °F /  -15 °C 1.7 °F /  -16.8 °C 1021.9 in /  34601.5 hPa NNW 46.3 mph /  74.5 km/h 46.3 mph /  74.5 km/h 79 % 0.0 in /  0 mm 0.0 W/m2 CLR
23:59 5.0 °F /  -15 °C 1.7 °F /  -16.8 °C 1022.2 in /  34611.7 hPa NNW 35.2 mph /  56.6 km/h 35.2 mph /  56.6 km/h 79 % 0.0 in /  0 mm 0.0 W/m2 CLR
Lo Temps de Massalio
Compliments of Weather Underground - 1.25 mb